createdAt,value
2022-09-30T00:01:54.583Z,100673.63
2022-09-30T00:04:24.409Z,100679.09
2022-09-30T00:06:53.773Z,100679.22
2022-09-30T00:09:23.030Z,100677.38
2022-09-30T00:11:51.493Z,100678.50
2022-09-30T00:14:22.514Z,100685.78
2022-09-30T00:16:50.440Z,100682.72
2022-09-30T00:19:18.284Z,100697.31
2022-09-30T00:21:45.841Z,100695.50
2022-09-30T00:24:13.698Z,100688.31
2022-09-30T00:26:41.491Z,100682.38
2022-09-30T00:29:09.934Z,100678.84
2022-09-30T00:31:37.525Z,100678.25
2022-09-30T00:34:08.366Z,100683.75
2022-09-30T00:36:44.188Z,100680.09
2022-09-30T00:39:23.905Z,100674.00
2022-09-30T00:41:55.533Z,100676.81
2022-09-30T00:44:44.940Z,100688.69
2022-09-30T00:47:24.645Z,100680.91
2022-09-30T00:49:52.706Z,100692.56
2022-09-30T00:52:20.587Z,100693.41
2022-09-30T00:54:48.196Z,100692.56
2022-09-30T00:57:15.783Z,100689.41
2022-09-30T00:59:47.807Z,100684.31
2022-09-30T01:02:15.494Z,100688.66
2022-09-30T01:04:44.445Z,100694.38
2022-09-30T01:07:13.184Z,100694.63
2022-09-30T01:09:43.002Z,100700.09
2022-09-30T01:12:16.707Z,100701.03
2022-09-30T01:14:47.508Z,100695.94
2022-09-30T01:17:50.226Z,100690.47
2022-09-30T01:20:29.788Z,100696.66
2022-09-30T01:23:18.744Z,100694.00
2022-09-30T01:26:19.432Z,100701.03
2022-09-30T01:29:18.339Z,100694.13
2022-09-30T01:32:00.971Z,100699.59
2022-09-30T01:34:31.957Z,100705.66
2022-09-30T01:37:08.655Z,100705.91
2022-09-30T01:39:58.975Z,100715.09
2022-09-30T01:42:26.476Z,100721.66
2022-09-30T01:45:28.477Z,100722.50
2022-09-30T01:47:55.956Z,100722.84
2022-09-30T01:50:41.069Z,100729.16
2022-09-30T01:53:27.748Z,100718.97
2022-09-30T01:56:04.168Z,100727.31
2022-09-30T01:59:07.208Z,100739.28
2022-09-30T02:01:44.264Z,100725.88
2022-09-30T02:04:24.087Z,100731.28
2022-09-30T02:07:00.011Z,100719.31
2022-09-30T02:09:37.996Z,100726.53
2022-09-30T02:12:09.677Z,100734.66
2022-09-30T02:14:44.569Z,100731.41
2022-09-30T02:17:21.347Z,100744.09
2022-09-30T02:20:07.876Z,100750.41
2022-09-30T02:22:48.547Z,100766.16
2022-09-30T02:25:25.583Z,100766.63
2022-09-30T02:27:59.249Z,100762.25
2022-09-30T02:30:27.884Z,100766.53
2022-09-30T02:33:03.267Z,100784.22
2022-09-30T02:35:39.443Z,100779.94
2022-09-30T02:38:16.524Z,100788.69
2022-09-30T02:40:48.172Z,100792.34
2022-09-30T02:43:19.060Z,100787.00
2022-09-30T02:45:50.118Z,100800.72
2022-09-30T02:48:35.835Z,100796.72
2022-09-30T02:51:18.076Z,100799.91
2022-09-30T02:53:55.571Z,100804.78
2022-09-30T02:56:58.200Z,100805.63
2022-09-30T02:59:27.478Z,100806.47
2022-09-30T03:01:55.040Z,100807.97
2022-09-30T03:04:29.159Z,100803.09
2022-09-30T03:06:57.756Z,100807.50
2022-09-30T03:09:27.231Z,100810.03
2022-09-30T03:12:17.057Z,100811.75
2022-09-30T03:14:56.994Z,100814.66
2022-09-30T03:17:42.171Z,100822.53
2022-09-30T03:20:25.075Z,100815.50
2022-09-30T03:22:55.477Z,100825.97
2022-09-30T03:25:41.797Z,100824.66
2022-09-30T03:28:28.966Z,100825.38
2022-09-30T03:31:04.180Z,100830.47
2022-09-30T03:33:50.008Z,100832.91
2022-09-30T03:36:36.502Z,100830.84
2022-09-30T03:39:17.914Z,100828.81
2022-09-30T03:41:54.298Z,100833.03
2022-09-30T03:45:02.696Z,100842.44
2022-09-30T03:47:34.128Z,100843.03
2022-09-30T03:50:06.090Z,100841.13
2022-09-30T03:52:35.196Z,100841.13
2022-09-30T03:55:08.735Z,100827.66
2022-09-30T03:57:36.232Z,100842.81
2022-09-30T04:00:07.093Z,100832.84
2022-09-30T04:02:37.777Z,100834.19
2022-09-30T04:05:06.139Z,100852.28
2022-09-30T04:07:34.352Z,100840.53
2022-09-30T04:10:01.817Z,100838.59
2022-09-30T04:12:32.412Z,100841.75
2022-09-30T04:15:00.040Z,100854.59
2022-09-30T04:17:27.633Z,100855.22
2022-09-30T04:19:55.105Z,100845.25
2022-09-30T04:22:26.251Z,100858.13
2022-09-30T04:24:56.382Z,100852.78
2022-09-30T04:27:24.060Z,100841.13
2022-09-30T04:29:51.506Z,100848.06
2022-09-30T04:32:22.305Z,100842.59
2022-09-30T04:34:49.948Z,100830.22
2022-09-30T04:37:17.529Z,100836.16
2022-09-30T04:39:45.364Z,100836.28
2022-09-30T04:42:13.596Z,100834.44
2022-09-30T04:44:41.504Z,100831.06
2022-09-30T04:47:09.334Z,100820.25
2022-09-30T04:49:36.803Z,100828.53
2022-09-30T04:52:04.324Z,100828.25
2022-09-30T04:54:32.104Z,100850.34
2022-09-30T04:57:01.027Z,100847.94
2022-09-30T04:59:29.007Z,100865.66
2022-09-30T05:01:56.610Z,100854.97
2022-09-30T05:04:25.068Z,100845.75
2022-09-30T05:06:52.679Z,100831.44
2022-09-30T05:09:21.396Z,100837.75
2022-09-30T05:11:49.653Z,100829.97
2022-09-30T05:14:17.339Z,100840.06
2022-09-30T05:16:44.944Z,100843.09
2022-09-30T05:19:12.577Z,100855.47
2022-09-30T05:21:40.989Z,100864.72
2022-09-30T05:24:08.450Z,100860.69
2022-09-30T05:26:35.964Z,100861.66
2022-09-30T05:29:03.585Z,100854.72
2022-09-30T05:31:31.462Z,100853.03
2022-09-30T05:33:58.978Z,100860.31
2022-09-30T05:36:26.747Z,100868.34
2022-09-30T05:38:54.824Z,100878.28
2022-09-30T05:41:23.113Z,100879.53
2022-09-30T05:43:51.452Z,100897.25
2022-09-30T05:46:20.205Z,100890.81
2022-09-30T05:48:47.890Z,100899.53
2022-09-30T05:51:15.381Z,100908.31
2022-09-30T05:53:43.208Z,100918.63
2022-09-30T05:56:11.725Z,100922.47
2022-09-30T05:58:40.779Z,100925.16
2022-09-30T06:01:13.850Z,100927.59
2022-09-30T06:03:46.854Z,100916.66
2022-09-30T06:06:15.852Z,100911.56
2022-09-30T06:08:43.896Z,100882.44
2022-09-30T06:11:16.205Z,100889.13
2022-09-30T06:13:45.956Z,100899.91
2022-09-30T06:16:14.596Z,100904.41
2022-09-30T06:18:42.553Z,100918.25
2022-09-30T06:21:12.760Z,100918.63
2022-09-30T06:23:41.333Z,100914.25
2022-09-30T06:26:14.681Z,100906.47
2022-09-30T06:28:44.490Z,100909.84
2022-09-30T06:31:12.896Z,100908.16
2022-09-30T06:33:42.335Z,100907.19
2022-09-30T06:36:10.563Z,100906.22
2022-09-30T06:38:39.972Z,100896.16
2022-09-30T06:41:08.363Z,100898.22
2022-09-30T06:43:47.874Z,100893.22
2022-09-30T06:46:24.377Z,100890.69
2022-09-30T06:49:10.467Z,100893.94
2022-09-30T06:51:40.866Z,100899.16
2022-09-30T06:54:09.310Z,100902.81
2022-09-30T06:56:37.145Z,100914.13
2022-09-30T06:59:04.756Z,100937.41
2022-09-30T07:01:32.551Z,100943.00
2022-09-30T07:04:08.075Z,100936.47
2022-09-30T07:06:39.110Z,100932.34
2022-09-30T07:09:07.656Z,100935.41
2022-09-30T07:11:37.463Z,100947.03
2022-09-30T07:14:05.926Z,100939.53
2022-09-30T07:16:34.406Z,100933.69
2022-09-30T07:19:03.413Z,100936.38
2022-09-30T07:21:31.682Z,100928.94
2022-09-30T07:24:00.263Z,100949.41
2022-09-30T07:26:28.326Z,100946.09
2022-09-30T07:28:55.948Z,100949.59
2022-09-30T07:31:35.038Z,100951.75
2022-09-30T07:34:07.312Z,100973.00
2022-09-30T07:36:37.254Z,100970.28
2022-09-30T07:39:07.576Z,100961.03
2022-09-30T07:41:39.094Z,100954.91
2022-09-30T07:44:13.360Z,100947.06
2022-09-30T07:46:42.740Z,100935.22
2022-09-30T07:49:14.831Z,100929.03
2022-09-30T07:51:45.453Z,100923.03
2022-09-30T07:54:18.718Z,100934.66
2022-09-30T07:59:38.276Z,100930.16
2022-09-30T08:02:11.279Z,100927.63
2022-09-30T08:04:43.496Z,100923.63
2022-09-30T08:07:13.650Z,100923.09
2022-09-30T08:09:41.438Z,100937.34
2022-09-30T08:12:09.689Z,100941.91
2022-09-30T08:14:37.248Z,100936.81
2022-09-30T08:17:05.227Z,100942.94
2022-09-30T08:19:34.023Z,100952.44
2022-09-30T08:24:34.246Z,100943.22
2022-09-30T08:27:01.803Z,100941.66
2022-09-30T08:29:54.004Z,100940.19
2022-09-30T08:32:17.064Z,100943.94
2022-09-30T08:34:44.617Z,100942.69
2022-09-30T08:37:12.898Z,100950.25
2022-09-30T08:39:40.456Z,100949.28
2022-09-30T08:42:38.333Z,100951.25
2022-09-30T08:45:28.975Z,100972.66
2022-09-30T08:48:10.546Z,100969.50
2022-09-30T08:50:47.049Z,100950.19
2022-09-30T08:53:26.808Z,100957.81
2022-09-30T08:55:58.034Z,100941.44
2022-09-30T08:58:35.616Z,100950.00
2022-09-30T09:01:31.647Z,100962.13
2022-09-30T09:04:03.290Z,100968.19
2022-09-30T09:06:34.125Z,100972.66
2022-09-30T09:09:35.232Z,100986.78
2022-09-30T09:12:23.800Z,100979.59
2022-09-30T09:15:25.910Z,101019.91
2022-09-30T09:18:21.424Z,101037.78
2022-09-30T09:20:53.365Z,101052.06
2022-09-30T09:23:22.161Z,101062.03
2022-09-30T09:25:53.164Z,101066.72
2022-09-30T09:28:38.010Z,101047.50
2022-09-30T09:31:06.068Z,101035.09
2022-09-30T09:33:39.789Z,101030.59
2022-09-30T09:36:33.045Z,101041.03
2022-09-30T09:39:06.240Z,101037.66
2022-09-30T09:41:53.265Z,101036.88
2022-09-30T09:44:52.144Z,101040.75
2022-09-30T09:47:20.280Z,101046.84
2022-09-30T09:49:57.521Z,101044.78
2022-09-30T09:53:01.241Z,101045.03
2022-09-30T09:55:28.868Z,101046.38
2022-09-30T09:58:14.644Z,101049.13
2022-09-30T10:00:48.076Z,101039.56
2022-09-30T10:03:23.258Z,101036.25
2022-09-30T10:06:09.155Z,101027.63
2022-09-30T10:08:53.782Z,101016.81
2022-09-30T10:11:27.765Z,101011.34
2022-09-30T10:14:00.944Z,101001.19
2022-09-30T10:16:31.370Z,101000.56
2022-09-30T10:19:00.249Z,101006.00
2022-09-30T10:21:30.060Z,100993.50
2022-09-30T10:23:59.946Z,100989.78
2022-09-30T10:26:28.951Z,100995.50
2022-09-30T10:28:58.548Z,100985.94
2022-09-30T10:31:42.057Z,100977.91
2022-09-30T10:34:30.551Z,100983.63
2022-09-30T10:37:01.424Z,100992.38
2022-09-30T10:39:36.610Z,100994.47
2022-09-30T10:42:08.629Z,101002.59
2022-09-30T10:44:57.857Z,101006.13
2022-09-30T10:47:27.133Z,101013.06
2022-09-30T10:50:17.161Z,101012.38
2022-09-30T10:52:55.891Z,101017.25
2022-09-30T10:55:30.921Z,101008.75
2022-09-30T10:58:24.639Z,101011.53
2022-09-30T11:01:00.022Z,101018.31
2022-09-30T11:03:37.243Z,101024.72
2022-09-30T11:06:07.657Z,101023.50
2022-09-30T11:08:45.256Z,101016.78
2022-09-30T11:11:24.584Z,101019.94
2022-09-30T11:14:10.255Z,101014.03
2022-09-30T11:16:56.748Z,100997.66
2022-09-30T11:19:33.043Z,101002.25
2022-09-30T11:22:18.127Z,100990.09
2022-09-30T11:24:49.214Z,100990.06
2022-09-30T11:27:49.497Z,100971.66
2022-09-30T11:30:43.908Z,100969.25
2022-09-30T11:33:40.387Z,100965.97
2022-09-30T11:36:31.260Z,100968.19
2022-09-30T11:39:36.308Z,100955.50
2022-09-30T11:44:41.811Z,100946.88
2022-09-30T11:47:34.110Z,100937.13
2022-09-30T11:50:20.782Z,100947.88
2022-09-30T11:52:54.329Z,100943.63
2022-09-30T11:55:33.189Z,100942.19
2022-09-30T11:58:36.171Z,100942.19
2022-09-30T12:01:01.833Z,100947.00
2022-09-30T12:03:36.201Z,100945.00
2022-09-30T12:06:16.173Z,100942.03
2022-09-30T12:08:53.044Z,100946.56
2022-09-30T12:11:29.997Z,100952.00
2022-09-30T12:14:06.158Z,100956.22
2022-09-30T12:16:37.198Z,100962.44
2022-09-30T12:19:17.355Z,100958.31
2022-09-30T12:22:06.502Z,100961.97
2022-09-30T12:24:38.234Z,100961.38
2022-09-30T12:27:27.528Z,100962.38
2022-09-30T12:30:20.582Z,100967.00
2022-09-30T12:33:07.160Z,100959.72
2022-09-30T12:35:40.989Z,100959.44
2022-09-30T12:38:38.931Z,100951.22
2022-09-30T12:41:58.076Z,100955.09
2022-09-30T12:44:41.142Z,100953.00
2022-09-30T12:48:00.927Z,100952.88
2022-09-30T12:50:34.305Z,100962.53
2022-09-30T12:53:17.893Z,100954.53
2022-09-30T12:55:46.479Z,100965.84
2022-09-30T12:58:20.488Z,100967.44
2022-09-30T13:01:17.329Z,100974.22
2022-09-30T13:03:57.113Z,100976.06
2022-09-30T13:06:25.726Z,100982.84
2022-09-30T13:08:57.236Z,100994.75
2022-09-30T13:11:33.331Z,100980.44
2022-09-30T13:14:33.030Z,100988.66
2022-09-30T13:17:13.130Z,100994.59
2022-09-30T13:19:41.990Z,100997.00
2022-09-30T13:22:18.908Z,100985.22
2022-09-30T13:24:58.543Z,100995.72
2022-09-30T13:27:44.724Z,100987.09
2022-09-30T13:30:18.202Z,100979.00
2022-09-30T13:33:25.378Z,100983.47
2022-09-30T13:35:53.031Z,100973.50
2022-09-30T13:38:32.304Z,100963.34
2022-09-30T13:41:03.471Z,100956.53
2022-09-30T13:43:43.435Z,100945.06
2022-09-30T13:46:22.860Z,100955.09
2022-09-30T13:49:00.652Z,100947.31
2022-09-30T13:51:32.924Z,100949.06
2022-09-30T13:54:09.746Z,100947.13
2022-09-30T13:56:40.874Z,100948.28
2022-09-30T13:59:26.792Z,100951.25
2022-09-30T14:02:10.836Z,100956.78
2022-09-30T14:04:50.403Z,100955.09
2022-09-30T14:07:27.037Z,100962.56
2022-09-30T14:10:13.993Z,100962.13
2022-09-30T14:12:45.694Z,100970.34
2022-09-30T14:15:25.122Z,100971.19
2022-09-30T14:18:28.996Z,100972.34
2022-09-30T14:21:14.442Z,100974.63
2022-09-30T14:23:42.906Z,100978.91
2022-09-30T14:26:28.873Z,100979.47
2022-09-30T14:29:24.825Z,100977.09
2022-09-30T14:31:52.493Z,100974.59
2022-09-30T14:34:23.017Z,100976.16
2022-09-30T14:36:53.673Z,100986.09
2022-09-30T14:39:29.636Z,100986.06
2022-09-30T14:42:02.679Z,100987.81
2022-09-30T14:44:36.527Z,100989.09
2022-09-30T14:47:05.758Z,100993.47
2022-09-30T14:49:37.598Z,100993.19
2022-09-30T14:52:06.749Z,100986.28
2022-09-30T14:54:47.857Z,100988.84
2022-09-30T14:57:17.684Z,100988.69
2022-09-30T14:59:45.984Z,100985.28
2022-09-30T15:02:22.189Z,100981.47
2022-09-30T15:05:00.376Z,100991.78
2022-09-30T15:07:30.079Z,100992.31
2022-09-30T15:10:02.669Z,100991.75
2022-09-30T15:12:32.448Z,100996.53
2022-09-30T15:15:01.002Z,100992.69
2022-09-30T15:17:35.453Z,100995.78
2022-09-30T15:20:35.062Z,100999.91
2022-09-30T15:23:03.650Z,101003.13
2022-09-30T15:25:32.227Z,101015.13
2022-09-30T15:28:00.094Z,101003.94
2022-09-30T15:30:29.362Z,101005.22
2022-09-30T15:32:59.687Z,101010.81
2022-09-30T15:35:27.640Z,101009.13
2022-09-30T15:38:08.189Z,101008.56
2022-09-30T15:40:57.114Z,101019.41
2022-09-30T15:43:38.293Z,101023.22
2022-09-30T15:46:27.050Z,101025.34
2022-09-30T15:49:07.305Z,101022.91
2022-09-30T15:51:37.020Z,101034.19
2022-09-30T15:54:40.854Z,101023.13
2022-09-30T15:57:42.952Z,101024.97
2022-09-30T16:00:41.955Z,101029.09
2022-09-30T16:03:18.587Z,101031.06
2022-09-30T16:05:50.643Z,101033.75
2022-09-30T16:08:28.348Z,101028.97
2022-09-30T16:10:58.625Z,101031.78
2022-09-30T16:13:28.960Z,101024.28
2022-09-30T16:15:58.569Z,101024.28
2022-09-30T16:18:31.413Z,101028.09
2022-09-30T16:21:05.898Z,101023.13
2022-09-30T16:23:38.276Z,101027.94
2022-09-30T16:26:16.127Z,101019.44
2022-09-30T16:28:44.160Z,101023.09
2022-09-30T16:31:12.468Z,101031.84
2022-09-30T16:33:42.799Z,101035.78
2022-09-30T16:36:11.826Z,101040.53
2022-09-30T16:38:41.880Z,101043.91
2022-09-30T16:41:13.430Z,101041.38
2022-09-30T16:43:41.146Z,101045.03
2022-09-30T16:46:09.751Z,101037.28
2022-09-30T16:48:38.473Z,101048.25
2022-09-30T16:51:17.036Z,101037.91
2022-09-30T16:53:47.909Z,101039.50
2022-09-30T16:56:17.173Z,101035.38
2022-09-30T16:58:46.107Z,101032.69
2022-09-30T17:01:20.885Z,101035.97
2022-09-30T17:03:48.900Z,101020.00
2022-09-30T17:06:19.114Z,101030.28
2022-09-30T17:08:49.800Z,101031.50
2022-09-30T17:11:19.494Z,101032.63
2022-09-30T17:13:48.204Z,101048.84
2022-09-30T17:16:15.874Z,101047.41
2022-09-30T17:18:43.406Z,101052.75
2022-09-30T17:21:11.108Z,101054.75
2022-09-30T17:23:39.396Z,101050.22
2022-09-30T17:26:06.967Z,101049.38
2022-09-30T17:28:36.129Z,101044.72
2022-09-30T17:31:03.861Z,101054.47
2022-09-30T17:33:35.345Z,101041.78
2022-09-30T17:36:06.151Z,101044.59
2022-09-30T17:38:34.529Z,101049.94
2022-09-30T17:41:21.953Z,101053.47
2022-09-30T17:43:49.813Z,101055.91
2022-09-30T17:46:23.315Z,101058.59
2022-09-30T17:48:55.273Z,101052.38
2022-09-30T17:51:25.065Z,101054.47
2022-09-30T17:53:52.627Z,101057.63
2022-09-30T17:56:22.644Z,101058.69
2022-09-30T17:58:51.203Z,101065.19
2022-09-30T18:01:20.892Z,101067.00
2022-09-30T18:03:53.649Z,101066.88
2022-09-30T18:06:21.311Z,101067.00
2022-09-30T18:08:52.821Z,101071.25
2022-09-30T18:11:25.014Z,101067.63
2022-09-30T18:13:55.906Z,101062.38
2022-09-30T18:16:30.325Z,101061.38
2022-09-30T18:19:03.318Z,101059.97
2022-09-30T18:21:33.089Z,101057.41
2022-09-30T18:24:01.620Z,101061.78
2022-09-30T18:26:33.138Z,101062.78
2022-09-30T18:29:03.448Z,101059.13
2022-09-30T18:31:38.835Z,101055.81
2022-09-30T18:34:13.380Z,101049.38
2022-09-30T18:36:42.596Z,101044.25
2022-09-30T18:39:10.092Z,101054.75
2022-09-30T18:41:44.482Z,101051.66
2022-09-30T18:44:12.941Z,101045.19
2022-09-30T18:46:42.440Z,101040.81
2022-09-30T18:49:10.662Z,101039.00
2022-09-30T18:51:38.155Z,101040.69
2022-09-30T18:54:06.402Z,101049.56
2022-09-30T18:56:34.603Z,101047.41
2022-09-30T18:59:04.822Z,101052.75
2022-09-30T19:01:34.131Z,101052.06
2022-09-30T19:04:04.028Z,101053.41
2022-09-30T19:06:32.107Z,101063.28
2022-09-30T19:09:00.711Z,101063.44
2022-09-30T19:11:30.455Z,101056.47
2022-09-30T19:14:01.443Z,101067.84
2022-09-30T19:16:37.924Z,101066.16
2022-09-30T19:19:10.480Z,101065.53
2022-09-30T19:21:39.489Z,101068.34
2022-09-30T19:24:09.228Z,101070.91
2022-09-30T19:26:38.568Z,101071.88
2022-09-30T19:29:09.570Z,101069.19
2022-09-30T19:31:37.825Z,101084.28
2022-09-30T19:34:06.308Z,101080.91
2022-09-30T19:36:46.190Z,101087.25
2022-09-30T19:39:16.920Z,101080.19
2022-09-30T19:41:46.391Z,101082.25
2022-09-30T19:44:18.864Z,101084.34
2022-09-30T19:46:52.484Z,101094.81
2022-09-30T19:49:21.768Z,101095.31
2022-09-30T19:51:52.765Z,101084.22
2022-09-30T19:54:35.466Z,101091.66
2022-09-30T19:57:07.707Z,101088.72
2022-09-30T19:59:35.480Z,101086.91
2022-09-30T20:02:03.717Z,101076.31
2022-09-30T20:04:31.881Z,101072.03
2022-09-30T20:06:59.785Z,101087.28
2022-09-30T20:09:27.800Z,101082.41
2022-09-30T20:11:55.580Z,101084.84
2022-09-30T20:14:41.524Z,101082.81
2022-09-30T20:17:08.931Z,101084.03
2022-09-30T20:19:37.699Z,101085.16
2022-09-30T20:22:05.478Z,101091.69
2022-09-30T20:24:33.447Z,101089.78
2022-09-30T20:27:00.916Z,101096.19
2022-09-30T20:29:28.569Z,101092.09
2022-09-30T20:31:57.263Z,101100.22
2022-09-30T20:34:24.859Z,101099.50
2022-09-30T20:36:52.360Z,101102.19
2022-09-30T20:39:19.787Z,101098.66
2022-09-30T20:41:48.945Z,101098.78
2022-09-30T20:44:19.528Z,101096.81
2022-09-30T20:46:47.028Z,101103.41
2022-09-30T20:49:14.721Z,101100.13
2022-09-30T20:51:42.346Z,101096.47
2022-09-30T20:54:09.938Z,101093.06
2022-09-30T20:57:02.889Z,101100.38
2022-09-30T20:59:25.144Z,101098.69
2022-09-30T21:01:52.765Z,101103.41
2022-09-30T21:04:21.387Z,101110.97
2022-09-30T21:06:48.859Z,101106.72
2022-09-30T21:09:17.125Z,101100.78
2022-09-30T21:11:44.677Z,101110.50
2022-09-30T21:14:12.315Z,101099.88
2022-09-30T21:16:39.853Z,101096.97
2022-09-30T21:19:10.964Z,101101.00
2022-09-30T21:21:39.229Z,101108.53
2022-09-30T21:24:06.833Z,101104.88
2022-09-30T21:26:35.621Z,101104.53
2022-09-30T21:29:03.358Z,101103.66
2022-09-30T21:31:33.259Z,101097.09
2022-09-30T21:34:01.670Z,101108.03
2022-09-30T21:36:29.775Z,101115.34
2022-09-30T21:39:04.373Z,101105.63
2022-09-30T21:41:33.616Z,101112.66
2022-09-30T21:44:01.519Z,101111.06
2022-09-30T21:46:29.654Z,101105.97
2022-09-30T21:49:05.958Z,101101.59
2022-09-30T21:51:35.730Z,101085.78
2022-09-30T21:54:03.454Z,101087.72
2022-09-30T21:56:33.174Z,101091.50
2022-09-30T21:59:00.727Z,101079.22
2022-09-30T22:01:29.516Z,101080.28
2022-09-30T22:03:57.548Z,101084.69
2022-09-30T22:06:25.960Z,101086.63
2022-09-30T22:08:55.742Z,101090.16
2022-09-30T22:11:25.225Z,101089.06
2022-09-30T22:13:55.674Z,101091.97
2022-09-30T22:16:27.321Z,101084.19
2022-09-30T22:18:57.436Z,101094.91
2022-09-30T22:21:26.299Z,101091.97
2022-09-30T22:23:53.875Z,101095.50
2022-09-30T22:26:22.648Z,101098.06
2022-09-30T22:28:54.528Z,101095.41
2022-09-30T22:31:24.600Z,101102.44
2022-09-30T22:34:16.384Z,101092.94
2022-09-30T22:37:02.984Z,101091.97
2022-09-30T22:39:30.960Z,101099.28
2022-09-30T22:41:59.113Z,101100.25
2022-09-30T22:44:28.999Z,101093.31
2022-09-30T22:47:00.317Z,101097.56
2022-09-30T22:49:32.239Z,101092.94
2022-09-30T22:52:01.039Z,101092.09
2022-09-30T22:54:29.222Z,101093.78
2022-09-30T22:56:59.463Z,101089.53
2022-09-30T22:59:28.748Z,101097.09
2022-09-30T23:01:57.606Z,101090.28
2022-09-30T23:04:26.717Z,101090.41
2022-09-30T23:06:58.147Z,101098.53
2022-09-30T23:09:26.220Z,101095.75
2022-09-30T23:11:54.939Z,101096.94
2022-09-30T23:14:22.784Z,101107.16
2022-09-30T23:16:50.901Z,101104.50
2022-09-30T23:19:19.351Z,101102.00
2022-09-30T23:21:46.999Z,101108.59
2022-09-30T23:24:15.920Z,101117.44
2022-09-30T23:26:43.670Z,101110.41
2022-09-30T23:29:13.138Z,101106.13
2022-09-30T23:31:41.381Z,101118.13
2022-09-30T23:34:09.150Z,101129.47
2022-09-30T23:36:38.045Z,101122.41
2022-09-30T23:39:09.329Z,101126.78
2022-09-30T23:41:37.407Z,101125.44
2022-09-30T23:44:05.244Z,101122.50
2022-09-30T23:46:32.806Z,101128.84
2022-09-30T23:49:00.336Z,101134.19
2022-09-30T23:51:28.032Z,101136.13
2022-09-30T23:53:55.920Z,101144.28
2022-09-30T23:56:24.068Z,101150.34
2022-09-30T23:58:51.594Z,101151.19
